Terminal Aerodrome Forecast
Issued by NWS

Home | Current Version | Previous Version | Graphics & Text | Print | Product List | Glossary On
Versions: 1 2 3 4 5 6 7 8 9 10 11 12 13 14 15 16 17 18 19 20
000
FTUS43 KGRB 301136
TAFATW
TAF
KATW 301136Z 3012/3112 00000KT 3SM BR BKN012
      TEMPO 3012/3013 1SM BR BKN006
     FM301400 22003KT 5SM BR BKN006
     FM301600 21005KT P6SM BKN012
     FM301800 21007KT P6SM FEW020
     FM310100 19003KT P6SM SKC
     FM310900 21004KT 6SM BR BKN004=

USA.gov is the U.S. government's official web portal to all federal, state and local government web resources and services.